createdAt,value
2023-02-11T00:02:32.364Z,8.00
2023-02-11T00:05:23.681Z,8.00
2023-02-11T00:08:23.775Z,8.00
2023-02-11T00:11:05.976Z,8.00
2023-02-11T00:13:55.757Z,8.00
2023-02-11T00:16:37.682Z,8.00
2023-02-11T00:19:26.670Z,8.00
2023-02-11T00:22:10.380Z,8.00
2023-02-11T00:24:58.765Z,8.00
2023-02-11T00:27:41.226Z,7.90
2023-02-11T00:30:29.836Z,7.80
2023-02-11T00:33:24.704Z,7.80
2023-02-11T00:36:07.830Z,7.80
2023-02-11T00:38:59.721Z,7.80
2023-02-11T00:41:43.008Z,7.80
2023-02-11T00:44:31.741Z,7.80
2023-02-11T00:47:16.594Z,7.80
2023-02-11T00:50:07.748Z,7.70
2023-02-11T00:52:49.660Z,7.70
2023-02-11T00:55:40.164Z,7.70
2023-02-11T00:58:28.687Z,7.80
2023-02-11T01:01:12.638Z,7.60
2023-02-11T01:04:01.737Z,7.70
2023-02-11T01:06:43.923Z,7.60
2023-02-11T01:09:32.696Z,7.60
2023-02-11T01:12:16.878Z,7.50
2023-02-11T01:15:04.674Z,7.50
2023-02-11T01:17:46.875Z,7.50
2023-02-11T01:20:35.778Z,7.50
2023-02-11T01:23:17.965Z,7.50
2023-02-11T01:26:06.791Z,7.50
2023-02-11T01:28:57.762Z,7.60
2023-02-11T01:31:52.758Z,7.70
2023-02-11T01:34:41.182Z,7.60
2023-02-11T01:37:22.914Z,7.70
2023-02-11T01:40:14.767Z,7.70
2023-02-11T01:42:56.997Z,7.70
2023-02-11T01:46:05.729Z,7.80
2023-02-11T01:48:51.912Z,7.80
2023-02-11T01:51:37.700Z,7.80
2023-02-11T01:54:47.719Z,7.80
2023-02-11T01:57:34.056Z,7.70
2023-02-11T02:00:27.696Z,7.70
2023-02-11T02:03:15.968Z,7.60
2023-02-11T02:06:10.780Z,7.60
2023-02-11T02:08:59.964Z,7.50
2023-02-11T02:11:48.751Z,7.50
2023-02-11T02:14:37.709Z,7.50
2023-02-11T02:17:33.270Z,7.60
2023-02-11T02:20:54.716Z,7.70
2023-02-11T02:23:55.610Z,7.80
2023-02-11T02:27:15.776Z,7.90
2023-02-11T02:30:42.699Z,7.90
2023-02-11T02:33:46.781Z,7.90
2023-02-11T02:36:36.333Z,8.00
2023-02-11T02:39:28.683Z,8.00
2023-02-11T02:42:11.296Z,7.90
2023-02-11T02:45:03.786Z,7.90
2023-02-11T02:47:45.636Z,7.90
2023-02-11T02:50:43.780Z,8.00
2023-02-11T02:53:41.397Z,7.90
2023-02-11T02:56:42.023Z,8.00
2023-02-11T02:59:44.735Z,8.00
2023-02-11T03:02:33.967Z,8.10
2023-02-11T03:05:26.729Z,8.00
2023-02-11T03:08:15.959Z,8.00
2023-02-11T03:11:06.783Z,8.00
2023-02-11T03:13:51.009Z,8.00
2023-02-11T03:16:44.714Z,8.00
2023-02-11T03:19:30.022Z,8.00
2023-02-11T03:22:23.807Z,8.10
2023-02-11T03:25:09.899Z,8.10
2023-02-11T03:28:04.806Z,8.20
2023-02-11T03:30:52.961Z,8.20
2023-02-11T03:33:46.743Z,8.20
2023-02-11T03:36:34.293Z,8.20
2023-02-11T03:39:25.749Z,8.30
2023-02-11T03:42:18.742Z,8.40
2023-02-11T03:45:10.487Z,8.40
2023-02-11T03:48:02.730Z,8.30
2023-02-11T03:50:47.285Z,8.40
2023-02-11T03:53:36.736Z,8.50
2023-02-11T03:56:22.793Z,8.50
2023-02-11T03:59:12.755Z,8.50
2023-02-11T04:01:54.998Z,8.50
2023-02-11T04:04:46.821Z,8.40
2023-02-11T04:07:29.258Z,8.30
2023-02-11T04:10:18.727Z,8.40
2023-02-11T04:13:07.751Z,8.40
2023-02-11T04:15:51.192Z,8.40
2023-02-11T04:18:38.751Z,8.40
2023-02-11T04:21:20.981Z,8.40
2023-02-11T04:24:08.779Z,8.50
2023-02-11T04:26:50.999Z,8.50
2023-02-11T04:29:38.765Z,8.60
2023-02-11T04:32:22.963Z,8.50
2023-02-11T04:35:11.766Z,8.50
2023-02-11T04:38:00.781Z,8.60
2023-02-11T04:40:43.122Z,8.60
2023-02-11T04:43:31.817Z,8.50
2023-02-11T04:46:14.734Z,8.60
2023-02-11T04:49:04.773Z,8.60
2023-02-11T04:51:49.268Z,8.50
2023-02-11T04:54:38.827Z,8.50
2023-02-11T04:57:20.761Z,8.50
2023-02-11T05:00:09.837Z,8.60
2023-02-11T05:02:51.706Z,8.60
2023-02-11T05:05:41.818Z,8.60
2023-02-11T05:08:30.756Z,8.60
2023-02-11T05:11:13.063Z,8.60
2023-02-11T05:14:00.818Z,8.60
2023-02-11T05:16:43.063Z,8.40
2023-02-11T05:19:30.753Z,8.40
2023-02-11T05:22:13.942Z,8.30
2023-02-11T05:25:02.764Z,8.40
2023-02-11T05:27:44.986Z,8.40
2023-02-11T05:30:33.847Z,8.40
2023-02-11T05:33:28.761Z,8.50
2023-02-11T05:36:13.623Z,8.50
2023-02-11T05:39:03.770Z,8.50
2023-02-11T05:41:45.740Z,8.50
2023-02-11T05:44:34.758Z,8.50
2023-02-11T05:47:16.754Z,8.40
2023-02-11T05:50:05.833Z,8.40
2023-02-11T05:52:48.033Z,8.40
2023-02-11T05:55:37.797Z,8.40
2023-02-11T05:58:25.802Z,8.40
2023-02-11T06:01:07.987Z,8.50
2023-02-11T06:03:57.968Z,8.60
2023-02-11T06:06:41.180Z,8.50
2023-02-11T06:09:28.835Z,8.60
2023-02-11T06:12:13.056Z,8.70
2023-02-11T06:15:10.611Z,8.60
2023-02-11T06:17:53.012Z,8.70
2023-02-11T06:20:41.782Z,8.80
2023-02-11T06:23:23.972Z,8.80
2023-02-11T06:26:14.776Z,8.80
2023-02-11T06:29:04.789Z,8.80
2023-02-11T06:31:59.868Z,8.80
2023-02-11T06:34:48.801Z,8.90
2023-02-11T06:37:31.123Z,8.90
2023-02-11T06:40:19.887Z,8.90
2023-02-11T06:43:02.039Z,8.80
2023-02-11T06:45:52.058Z,8.80
2023-02-11T06:48:34.029Z,8.80
2023-02-11T06:51:22.775Z,8.70
2023-02-11T06:54:11.824Z,8.70
2023-02-11T06:56:53.851Z,8.70
2023-02-11T06:59:42.868Z,8.80
2023-02-11T07:02:47.834Z,8.90
2023-02-11T07:05:35.875Z,8.90
2023-02-11T07:08:18.110Z,8.90
2023-02-11T07:11:05.797Z,8.90
2023-02-11T07:13:49.061Z,8.90
2023-02-11T07:16:37.921Z,8.90
2023-02-11T07:19:27.780Z,9.00
2023-02-11T07:22:09.657Z,9.00
2023-02-11T07:24:58.882Z,9.10
2023-02-11T07:27:41.369Z,9.00
2023-02-11T07:30:29.847Z,9.10
2023-02-11T07:33:24.823Z,9.10
2023-02-11T07:36:16.849Z,9.00
2023-02-11T07:38:59.002Z,9.00
2023-02-11T07:41:47.884Z,9.10
2023-02-11T07:44:40.219Z,9.10
2023-02-11T07:47:21.801Z,9.00
2023-02-11T07:50:10.808Z,9.00
2023-02-11T07:52:54.263Z,8.90
2023-02-11T07:55:42.866Z,9.00
2023-02-11T07:58:24.828Z,9.10
2023-02-11T08:01:16.910Z,9.10
2023-02-11T08:04:00.727Z,9.10
2023-02-11T08:06:56.537Z,9.10
2023-02-11T08:09:47.887Z,9.10
2023-02-11T08:12:30.022Z,9.20
2023-02-11T08:15:17.815Z,9.20
2023-02-11T08:18:00.007Z,9.10
2023-02-11T08:20:49.183Z,9.10
2023-02-11T08:23:31.070Z,9.20
2023-02-11T08:26:27.090Z,9.10
2023-02-11T08:29:11.068Z,9.30
2023-02-11T08:31:58.965Z,9.30
2023-02-11T08:34:41.360Z,9.40
2023-02-11T08:37:32.074Z,9.40
2023-02-11T08:40:22.840Z,9.30
2023-02-11T08:43:08.066Z,9.20
2023-02-11T08:45:56.901Z,9.10
2023-02-11T08:48:38.854Z,9.10
2023-02-11T08:51:30.916Z,9.20
2023-02-11T08:54:13.142Z,9.30
2023-02-11T08:57:05.910Z,9.30
2023-02-11T08:59:49.125Z,9.30
2023-02-11T09:02:37.980Z,9.30
2023-02-11T09:05:25.924Z,9.30
2023-02-11T09:08:07.994Z,9.40
2023-02-11T09:10:56.922Z,9.30
2023-02-11T09:13:39.397Z,9.50
2023-02-11T09:16:30.880Z,9.50
2023-02-11T09:19:14.037Z,9.50
2023-02-11T09:22:01.798Z,9.40
2023-02-11T09:24:44.002Z,9.50
2023-02-11T09:27:31.905Z,9.60
2023-02-11T09:30:22.977Z,9.70
2023-02-11T09:33:13.084Z,9.60
2023-02-11T09:35:54.809Z,9.60
2023-02-11T09:38:36.809Z,9.70
2023-02-11T09:41:51.827Z,9.80
2023-02-11T09:44:36.062Z,9.80
2023-02-11T09:47:36.923Z,9.80
2023-02-11T09:50:25.252Z,9.90
2023-02-11T09:53:18.957Z,10.00
2023-02-11T09:56:08.813Z,10.10
2023-02-11T09:58:52.032Z,10.00
2023-02-11T10:01:47.951Z,10.00
2023-02-11T10:04:48.100Z,10.00
2023-02-11T10:07:45.843Z,10.10
2023-02-11T10:10:45.171Z,10.10
2023-02-11T10:13:55.898Z,10.10
2023-02-11T10:16:50.153Z,10.10
2023-02-11T10:19:50.846Z,10.10
2023-02-11T10:22:41.342Z,10.20
2023-02-11T10:25:32.886Z,10.20
2023-02-11T10:28:27.902Z,10.20
2023-02-11T10:31:15.072Z,10.30
2023-02-11T10:34:08.843Z,10.20
2023-02-11T10:36:51.045Z,10.20
2023-02-11T10:39:42.867Z,10.20
2023-02-11T10:42:26.197Z,10.20
2023-02-11T10:45:22.896Z,10.20
2023-02-11T10:48:07.380Z,10.20
2023-02-11T10:50:56.901Z,10.30
2023-02-11T10:53:38.989Z,10.30
2023-02-11T10:56:37.934Z,10.20
2023-02-11T10:59:32.975Z,10.30
2023-02-11T11:02:32.066Z,10.40
2023-02-11T11:05:29.053Z,10.40
2023-02-11T11:08:14.076Z,10.50
2023-02-11T11:11:13.890Z,10.50
2023-02-11T11:14:05.126Z,10.40
2023-02-11T11:17:00.874Z,10.40
2023-02-11T11:19:43.104Z,10.40
2023-02-11T11:22:31.888Z,10.30
2023-02-11T11:25:33.114Z,10.30
2023-02-11T11:28:30.927Z,10.30
2023-02-11T11:31:29.036Z,10.40
2023-02-11T11:34:30.144Z,10.40
2023-02-11T11:37:19.971Z,10.50
2023-02-11T11:40:08.663Z,10.60
2023-02-11T11:42:56.855Z,10.60
2023-02-11T11:45:38.977Z,10.60
2023-02-11T11:48:35.884Z,10.60
2023-02-11T11:51:18.441Z,10.60
2023-02-11T11:57:10.862Z,10.50
2023-02-11T11:59:59.961Z,10.60
2023-02-11T12:03:11.960Z,10.50
2023-02-11T12:06:09.902Z,10.60
2023-02-11T12:09:07.977Z,10.60
2023-02-11T12:12:07.448Z,10.70
2023-02-11T12:15:03.977Z,10.70
2023-02-11T12:18:10.128Z,10.80
2023-02-11T12:21:18.884Z,10.80
2023-02-11T12:24:17.694Z,10.80
2023-02-11T12:27:13.888Z,10.70
2023-02-11T12:30:05.765Z,10.60
2023-02-11T12:33:02.874Z,10.70
2023-02-11T12:35:56.086Z,10.90
2023-02-11T12:39:04.010Z,10.90
2023-02-11T12:42:29.912Z,10.90
2023-02-11T12:45:27.524Z,10.90
2023-02-11T12:48:29.014Z,11.00
2023-02-11T12:51:19.765Z,11.00
2023-02-11T12:54:27.973Z,11.00
2023-02-11T12:57:26.165Z,11.00
2023-02-11T13:00:14.887Z,11.00
2023-02-11T13:03:02.450Z,11.20
2023-02-11T13:05:55.906Z,11.20
2023-02-11T13:08:41.746Z,11.40
2023-02-11T13:11:36.914Z,11.40
2023-02-11T13:14:42.007Z,11.40
2023-02-11T13:17:36.457Z,11.40
2023-02-11T13:20:33.978Z,11.40
2023-02-11T13:23:24.689Z,11.30
2023-02-11T13:26:20.037Z,11.10
2023-02-11T13:29:18.946Z,11.20
2023-02-11T13:32:09.080Z,11.20
2023-02-11T13:34:56.966Z,11.30
2023-02-11T13:37:49.978Z,11.10
2023-02-11T13:40:34.978Z,11.10
2023-02-11T13:43:36.894Z,11.10
2023-02-11T13:46:28.066Z,11.00
2023-02-11T13:49:10.161Z,11.10
2023-02-11T13:51:59.942Z,11.20
2023-02-11T13:54:45.181Z,11.10
2023-02-11T13:57:44.970Z,11.10
2023-02-11T14:00:58.586Z,11.10
2023-02-11T14:04:44.065Z,11.10
2023-02-11T14:08:01.914Z,11.20
2023-02-11T14:10:52.692Z,11.30
2023-02-11T14:13:43.083Z,11.30
2023-02-11T14:16:37.284Z,11.30
2023-02-11T14:19:45.986Z,11.40
2023-02-11T14:22:37.934Z,11.40
2023-02-11T14:25:29.242Z,11.40
2023-02-11T14:28:26.046Z,11.30
2023-02-11T14:31:15.137Z,11.30
2023-02-11T14:34:40.919Z,11.30
2023-02-11T14:37:37.194Z,11.30
2023-02-11T14:40:36.982Z,11.30
2023-02-11T14:43:22.216Z,11.30
2023-02-11T14:46:11.071Z,11.20
2023-02-11T14:49:01.935Z,11.20
2023-02-11T14:51:45.563Z,11.30
2023-02-11T14:54:36.953Z,11.30
2023-02-11T14:57:35.990Z,11.30
2023-02-11T15:00:27.076Z,11.30
2023-02-11T15:03:09.230Z,11.40
2023-02-11T15:06:03.031Z,11.40
2023-02-11T15:08:52.185Z,11.40
2023-02-11T15:11:45.938Z,11.40
2023-02-11T15:14:38.910Z,11.30
2023-02-11T15:17:24.047Z,11.40
2023-02-11T15:20:16.950Z,11.40
2023-02-11T15:23:02.380Z,11.30
2023-02-11T15:26:01.926Z,11.30
2023-02-11T15:28:52.071Z,11.30
2023-02-11T15:31:42.117Z,11.40
2023-02-11T15:34:24.310Z,11.40
2023-02-11T15:37:13.021Z,11.40
2023-02-11T15:40:08.926Z,11.40
2023-02-11T15:42:58.856Z,11.40
2023-02-11T15:45:53.008Z,11.40
2023-02-11T15:48:38.354Z,11.50
2023-02-11T15:51:35.045Z,11.40
2023-02-11T15:54:20.842Z,11.50
2023-02-11T15:57:16.573Z,11.60
2023-02-11T16:00:04.411Z,11.60
2023-02-11T16:02:55.969Z,11.60
2023-02-11T16:05:52.049Z,11.60
2023-02-11T16:08:35.523Z,11.50
2023-02-11T16:11:39.985Z,11.60
2023-02-11T16:14:24.605Z,11.50
2023-02-11T16:17:17.960Z,11.60
2023-02-11T16:19:59.931Z,11.40
2023-02-11T16:22:48.966Z,11.40
2023-02-11T16:25:31.043Z,11.60
2023-02-11T16:28:19.978Z,11.60
2023-02-11T16:31:02.716Z,11.60
2023-02-11T16:33:53.013Z,11.60
2023-02-11T16:36:48.025Z,11.60
2023-02-11T16:39:30.059Z,11.70
2023-02-11T16:42:19.029Z,11.70
2023-02-11T16:45:00.919Z,11.60
2023-02-11T16:47:50.055Z,11.60
2023-02-11T16:50:33.258Z,11.70
2023-02-11T16:53:21.988Z,11.70
2023-02-11T16:56:17.778Z,11.60
2023-02-11T16:59:05.961Z,11.60
2023-02-11T17:01:50.363Z,11.60
2023-02-11T17:04:35.035Z,11.60
2023-02-11T17:07:27.050Z,11.70
2023-02-11T17:10:09.232Z,11.60
2023-02-11T17:12:59.059Z,11.60
2023-02-11T17:15:41.171Z,11.60
2023-02-11T17:18:30.002Z,11.60
2023-02-11T17:21:14.166Z,11.50
2023-02-11T17:24:04.075Z,11.50
2023-02-11T17:26:46.191Z,11.60
2023-02-11T17:29:34.115Z,11.50
2023-02-11T17:32:23.088Z,11.50
2023-02-11T17:35:06.854Z,11.40
2023-02-11T17:37:55.990Z,11.30
2023-02-11T17:40:39.403Z,11.30
2023-02-11T17:43:27.981Z,11.40
2023-02-11T17:46:10.519Z,11.50
2023-02-11T17:48:58.993Z,11.50
2023-02-11T17:51:41.256Z,11.50
2023-02-11T17:54:33.054Z,11.60
2023-02-11T17:57:22.986Z,11.50
2023-02-11T18:00:05.273Z,11.50
2023-02-11T18:02:57.636Z,11.50
2023-02-11T18:05:42.220Z,11.30
2023-02-11T18:08:29.994Z,11.40
2023-02-11T18:11:16.910Z,11.40
2023-02-11T18:14:08.027Z,11.50
2023-02-11T18:16:50.442Z,11.50
2023-02-11T18:19:41.994Z,11.40
2023-02-11T18:22:24.564Z,11.40
2023-02-11T18:25:13.979Z,11.30
2023-02-11T18:28:03.150Z,11.30
2023-02-11T18:30:46.720Z,11.40
2023-02-11T18:33:34.996Z,11.30
2023-02-11T18:36:18.054Z,11.40
2023-02-11T18:39:07.090Z,11.40
2023-02-11T18:41:49.983Z,11.40
2023-02-11T18:44:39.060Z,11.40
2023-02-11T18:47:22.491Z,11.40
2023-02-11T18:50:11.045Z,11.40
2023-02-11T18:52:52.995Z,11.40
2023-02-11T18:55:34.999Z,11.40
2023-02-11T18:58:30.018Z,11.40
2023-02-11T19:01:14.472Z,11.40
2023-02-11T19:04:05.103Z,11.40
2023-02-11T19:06:49.452Z,11.50
2023-02-11T19:09:38.074Z,11.50
2023-02-11T19:12:20.088Z,11.40
2023-02-11T19:15:09.020Z,11.40
2023-02-11T19:17:51.082Z,11.40
2023-02-11T19:20:41.126Z,11.40
2023-02-11T19:23:29.091Z,11.50
2023-02-11T19:26:11.246Z,11.40
2023-02-11T19:29:00.015Z,11.40
2023-02-11T19:31:42.430Z,11.40
2023-02-11T19:34:30.132Z,11.50
2023-02-11T19:37:13.640Z,11.50
2023-02-11T19:40:02.029Z,11.50
2023-02-11T19:42:44.282Z,11.50
2023-02-11T19:45:33.034Z,11.50
2023-02-11T19:48:15.246Z,11.40
2023-02-11T19:51:04.192Z,11.50
2023-02-11T19:53:54.051Z,11.50
2023-02-11T19:56:49.258Z,11.50
2023-02-11T19:59:38.036Z,11.40
2023-02-11T20:02:20.249Z,11.40
2023-02-11T20:05:09.015Z,11.40
2023-02-11T20:07:51.307Z,11.40
2023-02-11T20:10:42.078Z,11.50
2023-02-11T20:13:24.285Z,11.40
2023-02-11T20:16:14.199Z,11.50
2023-02-11T20:19:04.105Z,11.50
2023-02-11T20:21:47.770Z,11.50
2023-02-11T20:24:39.112Z,11.50
2023-02-11T20:27:22.369Z,11.50
2023-02-11T20:30:11.105Z,11.30
2023-02-11T20:32:52.952Z,11.30
2023-02-11T20:35:42.100Z,11.30
2023-02-11T20:38:24.079Z,11.30
2023-02-11T20:41:20.187Z,11.40
2023-02-11T20:44:13.059Z,11.40
2023-02-11T20:46:55.534Z,11.50
2023-02-11T20:49:43.051Z,11.50
2023-02-11T20:52:25.298Z,11.40
2023-02-11T20:55:14.101Z,11.40
2023-02-11T20:58:02.260Z,11.40
2023-02-11T21:00:45.083Z,11.40
2023-02-11T21:03:27.065Z,11.30
2023-02-11T21:06:16.221Z,11.20
2023-02-11T21:09:11.068Z,11.30
2023-02-11T21:11:56.899Z,11.30
2023-02-11T21:14:46.046Z,11.30
2023-02-11T21:17:29.828Z,11.30
2023-02-11T21:20:18.220Z,11.10
2023-02-11T21:23:00.038Z,11.20
2023-02-11T21:25:49.049Z,11.20
2023-02-11T21:28:31.021Z,11.20
2023-02-11T21:31:21.213Z,11.20
2023-02-11T21:34:04.793Z,11.20
2023-02-11T21:36:46.167Z,11.20
2023-02-11T21:39:35.109Z,11.30
2023-02-11T21:42:17.110Z,11.30
2023-02-11T21:45:06.035Z,11.30
2023-02-11T21:47:47.953Z,11.40
2023-02-11T21:50:38.071Z,11.40
2023-02-11T21:53:20.237Z,11.30
2023-02-11T21:56:18.145Z,11.30
2023-02-11T21:59:00.829Z,11.30
2023-02-11T22:01:49.127Z,11.20
2023-02-11T22:04:37.139Z,11.00
2023-02-11T22:07:22.914Z,11.00
2023-02-11T22:10:12.167Z,10.70
2023-02-11T22:12:54.299Z,10.70
2023-02-11T22:15:45.080Z,10.50
2023-02-11T22:18:27.320Z,10.50
2023-02-11T22:21:18.092Z,10.60
2023-02-11T22:24:02.241Z,10.30
2023-02-11T22:26:50.165Z,10.30
2023-02-11T22:29:39.089Z,10.50
2023-02-11T22:32:21.140Z,10.60
2023-02-11T22:35:10.096Z,10.60
2023-02-11T22:37:52.282Z,10.80
2023-02-11T22:40:42.136Z,10.70
2023-02-11T22:43:24.120Z,10.50
2023-02-11T22:46:15.177Z,10.60
2023-02-11T22:48:57.374Z,10.50
2023-02-11T22:51:46.125Z,10.60
2023-02-11T22:54:43.182Z,10.50
2023-02-11T22:57:40.114Z,10.60
2023-02-11T23:00:32.187Z,10.60
2023-02-11T23:03:15.361Z,10.30
2023-02-11T23:06:06.183Z,10.20
2023-02-11T23:08:49.369Z,10.40
2023-02-11T23:11:39.108Z,10.40
2023-02-11T23:14:22.335Z,10.40
2023-02-11T23:17:11.100Z,10.30
2023-02-11T23:20:00.220Z,10.10
2023-02-11T23:22:42.054Z,10.00
2023-02-11T23:25:31.138Z,9.80
2023-02-11T23:28:13.856Z,9.60
2023-02-11T23:31:03.159Z,9.70
2023-02-11T23:33:45.337Z,9.70
2023-02-11T23:36:36.101Z,9.80
2023-02-11T23:39:18.129Z,9.90
2023-02-11T23:42:07.100Z,9.80
2023-02-11T23:44:55.118Z,9.90
2023-02-11T23:47:39.239Z,9.90
2023-02-11T23:50:28.206Z,10.00
2023-02-11T23:53:10.301Z,9.90
2023-02-11T23:55:59.109Z,9.90
2023-02-11T23:58:51.379Z,9.80
